Time;durP1;ratioP1;P1;durP2;ratioP2;P2;SDS_P1;SDS_P2;PMS_P1;PMS_P2;Temp;Humidity;BMP_temperature;BMP_pressure;BME280_temperature;BME280_humidity;BME280_pressure;Samples;Min_cycle;Max_cycle;Signal;HPM_P1;HPM_P2
2022/05/26 00:00:27;;;;;;;20.42;4.55;;;13.80;99.90;;;;;;5009907;28;20480;-69
2022/05/26 00:02:53;;;;;;;20.63;4.97;;;13.80;99.90;;;;;;5026601;28;20053;-70
2022/05/26 00:05:19;;;;;;;18.00;4.78;;;13.80;99.90;;;;;;5028709;28;20490;-66
2022/05/26 00:07:44;;;;;;;19.88;5.20;;;13.80;99.90;;;;;;5013167;28;20049;-63
2022/05/26 00:10:11;;;;;;;20.33;5.25;;;13.80;99.90;;;;;;5028756;28;20049;-65
2022/05/26 00:12:36;;;;;;;16.13;4.40;;;13.80;99.90;;;;;;5013820;28;20130;-67
2022/05/26 00:15:05;;;;;;;15.65;5.15;;;13.80;99.90;;;;;;5011767;28;20131;-64
2022/05/26 00:17:30;;;;;;;21.52;5.65;;;13.80;99.90;;;;;;5013343;28;20056;-68
2022/05/26 00:19:58;;;;;;;23.95;5.22;;;13.80;99.90;;;;;;5028821;28;20513;-66
2022/05/26 00:22:24;;;;;;;19.75;5.13;;;13.80;99.90;;;;;;5029551;28;20518;-67
2022/05/26 00:24:50;;;;;;;19.95;5.75;;;13.80;99.90;;;;;;5029021;28;20323;-66
2022/05/26 00:27:16;;;;;;;20.70;4.55;;;13.80;99.90;;;;;;5011809;28;20029;-65
2022/05/26 00:29:42;;;;;;;15.80;5.10;;;13.80;99.90;;;;;;5009861;28;20048;-65
2022/05/26 00:32:08;;;;;;;18.55;5.22;;;13.80;99.90;;;;;;5019992;28;20128;-69
2022/05/26 00:34:34;;;;;;;20.10;4.70;;;13.80;99.90;;;;;;5046884;28;20049;-69
2022/05/26 00:37:00;;;;;;;21.88;5.60;;;13.80;99.90;;;;;;5011798;28;20513;-67
2022/05/26 00:39:26;;;;;;;20.30;4.82;;;13.80;99.90;;;;;;5028922;28;20045;-72
2022/05/26 00:41:56;;;;;;;18.98;5.03;;;13.80;99.90;;;;;;5012528;28;20055;-69
2022/05/26 00:44:25;;;;;;;18.83;4.72;;;13.80;99.90;;;;;;5028498;28;20053;-73
2022/05/26 00:46:56;;;;;;;22.77;5.53;;;13.80;99.90;;;;;;5028851;28;20057;-69
2022/05/26 00:49:33;;;;;;;22.95;5.15;;;13.80;99.90;;;;;;5012216;28;20048;-67
2022/05/26 00:51:59;;;;;;;15.10;4.70;;;13.80;99.90;;;;;;5028257;28;20408;-67
2022/05/26 00:54:26;;;;;;;24.27;6.05;;;13.80;99.90;;;;;;5028517;28;20088;-71
2022/05/26 00:57:25;;;;;;;23.17;5.00;;;13.80;99.90;;;;;;4995664;28;20052;-65
2022/05/26 01:00:05;;;;;;;26.00;5.68;;;13.80;99.90;;;;;;5012605;28;20067;-67
2022/05/26 01:02:37;;;;;;;22.63;5.00;;;13.70;99.90;;;;;;5028141;28;20705;-68
2022/05/26 01:05:12;;;;;;;26.80;5.30;;;13.70;99.90;;;;;;5028009;28;20041;-62
2022/05/26 01:07:38;;;;;;;27.65;5.85;;;13.70;99.90;;;;;;5028008;28;20097;-67
2022/05/26 01:10:07;;;;;;;33.45;4.90;;;13.70;99.90;;;;;;5028140;28;20148;-71
2022/05/26 01:12:33;;;;;;;32.50;5.40;;;13.70;99.90;;;;;;5012208;28;20483;-69
2022/05/26 01:15:04;;;;;;;29.65;5.85;;;13.60;99.90;;;;;;5027597;28;20078;-70
2022/05/26 01:17:51;;;;;;;30.15;5.93;;;13.60;99.90;;;;;;5028213;28;20122;-68
2022/05/26 01:20:32;;;;;;;31.15;5.50;;;13.60;99.90;;;;;;5027622;28;20058;-70
2022/05/26 01:23:37;;;;;;;30.65;5.28;;;13.60;99.90;;;;;;5012107;28;20135;-69
2022/05/26 01:26:18;;;;;;;35.83;5.88;;;13.60;99.90;;;;;;5011610;28;20052;-66
2022/05/26 01:28:56;;;;;;;23.83;4.85;;;13.60;99.90;;;;;;5011340;28;20203;-70
2022/05/26 01:31:51;;;;;;;21.05;4.65;;;13.60;99.90;;;;;;5045693;28;20076;-70
2022/05/26 01:34:56;;;;;;;30.48;5.82;;;13.60;99.90;;;;;;4992181;28;20065;-66
2022/05/26 01:37:36;;;;;;;24.95;5.57;;;13.60;99.90;;;;;;5011015;28;20090;-64
2022/05/26 01:40:02;;;;;;;32.72;6.38;;;13.60;99.90;;;;;;5011055;28;20044;-68
2022/05/26 01:42:58;;;;;;;37.72;6.25;;;13.60;99.90;;;;;;5027750;28;20041;-63
2022/05/26 01:45:43;;;;;;;25.42;6.25;;;13.70;99.90;;;;;;5007520;28;20131;-65
2022/05/26 01:48:17;;;;;;;33.00;5.93;;;13.70;99.90;;;;;;5027817;28;20064;-72
2022/05/26 01:50:57;;;;;;;29.45;5.72;;;13.70;99.90;;;;;;5027926;28;20136;-63
2022/05/26 01:53:27;;;;;;;27.25;4.60;;;13.70;99.90;;;;;;5010758;28;20140;-64
2022/05/26 01:56:02;;;;;;;27.20;5.80;;;13.70;99.90;;;;;;5046357;28;20060;-71
2022/05/26 01:58:38;;;;;;;30.27;4.68;;;13.70;99.90;;;;;;5027692;28;20130;-66
2022/05/26 02:01:12;;;;;;;39.53;6.32;;;13.70;99.90;;;;;;5026812;28;20059;-67
2022/05/26 02:03:41;;;;;;;26.38;5.43;;;13.70;99.90;;;;;;5027931;28;20040;-65
2022/05/26 02:06:22;;;;;;;25.70;4.95;;;13.80;99.90;;;;;;5027524;28;20045;-66
2022/05/26 02:09:07;;;;;;;29.60;4.97;;;13.80;99.90;;;;;;5028501;28;20463;-63
2022/05/26 02:11:49;;;;;;;26.65;5.50;;;13.80;99.90;;;;;;5027187;28;20052;-63
2022/05/26 02:14:19;;;;;;;23.67;5.40;;;13.80;99.90;;;;;;5028705;28;20104;-69
2022/05/26 02:16:51;;;;;;;33.17;5.60;;;13.80;99.90;;;;;;5015079;28;20047;-63
2022/05/26 02:19:34;;;;;;;29.08;5.45;;;13.80;99.90;;;;;;5049181;28;20044;-70
2022/05/26 02:22:36;;;;;;;20.15;3.88;;;13.80;99.90;;;;;;5049483;28;20079;-71
2022/05/26 02:25:21;;;;;;;25.67;4.38;;;13.80;99.90;;;;;;5049034;28;20406;-66
2022/05/26 02:27:51;;;;;;;21.63;4.18;;;13.80;99.90;;;;;;5031400;28;20049;-62
2022/05/26 02:30:18;;;;;;;25.63;4.60;;;13.80;99.90;;;;;;5031358;28;20049;-65
2022/05/26 02:32:47;;;;;;;15.50;3.55;;;13.90;99.90;;;;;;5030623;28;20056;-67
2022/05/26 02:35:20;;;;;;;15.57;3.50;;;13.80;99.90;;;;;;5031652;28;20084;-73
2022/05/26 02:37:48;;;;;;;22.50;4.20;;;13.80;99.90;;;;;;5031086;28;20280;-65
2022/05/26 02:40:15;;;;;;;28.52;4.47;;;13.90;99.90;;;;;;5031118;28;20059;-63
2022/05/26 02:42:48;;;;;;;25.80;4.97;;;13.80;99.90;;;;;;4997829;28;20047;-71
2022/05/26 02:45:41;;;;;;;27.42;4.18;;;13.90;99.90;;;;;;5030480;28;20049;-64
2022/05/26 02:48:19;;;;;;;23.75;4.60;;;13.80;99.90;;;;;;5031204;28;20053;-74
2022/05/26 02:51:12;;;;;;;26.15;4.20;;;13.80;99.90;;;;;;5014375;28;20048;-70
2022/05/26 02:53:48;;;;;;;23.05;4.03;;;13.70;99.90;;;;;;5013640;28;20503;-71
2022/05/26 02:56:54;;;;;;;15.15;3.50;;;13.70;99.90;;;;;;5014589;28;20053;-69
2022/05/26 02:59:29;;;;;;;21.90;4.00;;;13.70;99.90;;;;;;5001365;28;20121;-68
2022/05/26 03:02:02;;;;;;;25.63;4.70;;;13.70;99.90;;;;;;5030416;28;20060;-66
2022/05/26 03:04:42;;;;;;;23.00;5.05;;;13.70;99.90;;;;;;5010698;28;20057;-63
2022/05/26 03:07:23;;;;;;;24.73;5.63;;;13.70;99.90;;;;;;5010576;28;20081;-64
2022/05/26 03:09:50;;;;;;;31.67;5.10;;;13.70;99.90;;;;;;5011304;28;20053;-67
2022/05/26 03:12:26;;;;;;;24.40;4.70;;;13.60;99.90;;;;;;4994066;28;20053;-72
2022/05/26 03:14:53;;;;;;;26.83;4.88;;;13.60;99.90;;;;;;5030341;28;20053;-70
2022/05/26 03:17:19;;;;;;;23.02;5.03;;;13.60;99.90;;;;;;5013535;28;20076;-68
2022/05/26 03:19:46;;;;;;;22.08;4.53;;;13.60;99.90;;;;;;5030391;28;20076;-70
2022/05/26 03:22:13;;;;;;;28.08;5.57;;;13.60;99.90;;;;;;5013828;28;20391;-64
2022/05/26 03:24:40;;;;;;;28.88;5.78;;;13.60;99.90;;;;;;5012963;28;20442;-70
2022/05/26 03:27:06;;;;;;;26.30;5.20;;;13.60;99.90;;;;;;5029275;28;20114;-63
2022/05/26 03:29:32;;;;;;;24.10;5.03;;;13.50;99.90;;;;;;5029753;28;20116;-66
2022/05/26 03:31:58;;;;;;;28.27;4.70;;;13.50;99.90;;;;;;4996381;28;20080;-67
2022/05/26 03:42:43;;;;;;;21.98;4.60;;;13.50;99.90;;;;;;5029874;28;20049;-64
2022/05/26 03:45:10;;;;;;;25.38;4.28;;;13.50;99.90;;;;;;5029976;28;20041;-71
2022/05/26 03:47:35;;;;;;;24.52;4.07;;;13.50;99.90;;;;;;5013559;28;20045;-66
2022/05/26 03:50:01;;;;;;;24.55;4.53;;;13.50;99.90;;;;;;5030058;28;20449;-71
2022/05/26 03:52:27;;;;;;;24.40;5.03;;;13.50;99.90;;;;;;5023982;28;20470;-67
2022/05/26 03:54:53;;;;;;;24.02;4.38;;;13.50;99.90;;;;;;5009418;28;20411;-69
2022/05/26 03:57:27;;;;;;;23.88;4.43;;;13.50;99.90;;;;;;4993794;28;20395;-65
2022/05/26 03:59:53;;;;;;;21.48;4.05;;;13.50;99.90;;;;;;5009561;28;20064;-70
2022/05/26 04:02:19;;;;;;;26.50;3.95;;;13.50;99.90;;;;;;5008957;28;20483;-66
2022/05/26 04:04:45;;;;;;;20.52;3.55;;;13.50;99.90;;;;;;4993713;28;20049;-69
2022/05/26 04:07:12;;;;;;;20.60;3.58;;;13.50;99.90;;;;;;4993249;28;20103;-68
2022/05/26 04:09:39;;;;;;;13.38;3.20;;;13.40;99.90;;;;;;5009793;28;20511;-68
2022/05/26 04:12:08;;;;;;;16.27;2.97;;;13.40;99.90;;;;;;5009516;28;20103;-68
2022/05/26 04:14:34;;;;;;;16.05;3.50;;;13.40;99.90;;;;;;5009613;28;20048;-67
2022/05/26 04:17:00;;;;;;;20.55;3.58;;;13.40;99.90;;;;;;4992589;28;20037;-63
2022/05/26 04:19:26;;;;;;;12.90;2.50;;;13.40;99.90;;;;;;4977006;28;20087;-63
2022/05/26 04:24:37;;;;;;;17.58;2.95;;;13.40;99.90;;;;;;4995254;28;20486;-74
2022/05/26 04:27:05;;;;;;;8.48;2.20;;;13.40;99.90;;;;;;4993177;28;20052;-67
2022/05/26 04:29:33;;;;;;;17.02;3.42;;;13.50;99.90;;;;;;5008853;28;20500;-68
2022/05/26 04:31:58;;;;;;;18.15;3.38;;;13.50;99.90;;;;;;4993773;28;20057;-64
2022/05/26 04:34:24;;;;;;;18.98;2.92;;;13.50;99.90;;;;;;4992056;28;20471;-67
2022/05/26 04:36:50;;;;;;;16.23;2.90;;;13.50;99.90;;;;;;5008196;28;20095;-68
2022/05/26 04:39:16;;;;;;;18.83;3.13;;;13.50;99.90;;;;;;5008760;28;20049;-73
2022/05/26 04:41:43;;;;;;;10.52;2.70;;;13.50;99.90;;;;;;5009254;28;20049;-66
2022/05/26 04:44:14;;;;;;;18.95;2.90;;;13.50;99.90;;;;;;5008947;28;20045;-67
2022/05/26 04:46:40;;;;;;;14.50;2.53;;;13.50;99.90;;;;;;5008518;28;20650;-68
2022/05/26 04:49:07;;;;;;;17.83;3.47;;;13.50;99.90;;;;;;4993039;28;20050;-67
2022/05/26 04:51:34;;;;;;;10.68;2.47;;;13.50;99.90;;;;;;4991997;28;20538;-64
2022/05/26 04:54:05;;;;;;;14.15;2.63;;;13.60;99.90;;;;;;4992529;28;20057;-71
2022/05/26 04:56:31;;;;;;;13.45;2.38;;;13.60;99.90;;;;;;4992121;28;20060;-69
2022/05/26 04:58:57;;;;;;;13.27;2.05;;;13.60;99.90;;;;;;5008574;28;20041;-70
2022/05/26 05:01:23;;;;;;;13.65;2.55;;;13.70;99.90;;;;;;5008181;28;20049;-67
2022/05/26 05:03:49;;;;;;;13.82;2.60;;;13.70;99.90;;;;;;5008910;28;20186;-75
2022/05/26 05:06:16;;;;;;;9.52;2.10;;;13.80;99.90;;;;;;4992406;28;20049;-68
2022/05/26 05:08:43;;;;;;;12.65;2.80;;;13.80;99.90;;;;;;5007996;28;20116;-67
2022/05/26 05:11:12;;;;;;;10.48;2.30;;;13.80;99.90;;;;;;5009345;28;20045;-72
2022/05/26 05:13:38;;;;;;;15.10;2.70;;;13.80;99.90;;;;;;4975813;28;20156;-68
2022/05/26 05:16:27;;;;;;;14.20;2.30;;;13.90;99.90;;;;;;5008765;28;20049;-64
2022/05/26 05:18:53;;;;;;;19.75;2.88;;;13.90;99.90;;;;;;4992010;28;20141;-66
2022/05/26 05:21:33;;;;;;;12.13;2.40;;;13.90;99.90;;;;;;5008735;28;20076;-65
2022/05/26 05:24:04;;;;;;;5.30;1.50;;;13.90;99.90;;;;;;4988002;28;20061;-65
2022/05/26 05:26:35;;;;;;;7.28;1.58;;;14.00;99.90;;;;;;5026081;28;20128;-67
2022/05/26 05:29:06;;;;;;;12.20;1.88;;;14.00;99.90;;;;;;5007885;28;20061;-72
2022/05/26 05:31:41;;;;;;;15.57;2.47;;;14.20;99.90;;;;;;4991772;28;20061;-66
2022/05/26 05:34:20;;;;;;;11.85;2.60;;;14.20;99.90;;;;;;5008281;28;20045;-67
2022/05/26 05:36:46;;;;;;;6.73;1.80;;;14.20;99.90;;;;;;4992563;28;20091;-63
2022/05/26 05:39:12;;;;;;;7.88;1.60;;;14.20;99.90;;;;;;4991285;28;20045;-66
2022/05/26 05:41:38;;;;;;;8.18;1.70;;;14.20;99.90;;;;;;5008594;28;20057;-63
2022/05/26 05:44:04;;;;;;;10.10;2.50;;;14.50;99.90;;;;;;4992106;28;20041;-68
2022/05/26 05:46:34;;;;;;;13.57;2.13;;;14.80;99.90;;;;;;5007957;28;20045;-70
2022/05/26 05:49:04;;;;;;;9.75;1.80;;;14.80;99.90;;;;;;4992794;28;20052;-66
2022/05/26 05:51:35;;;;;;;24.08;3.03;;;14.70;99.90;;;;;;4996066;28;20076;-63
2022/05/26 05:54:01;;;;;;;6.90;1.95;;;14.70;99.90;;;;;;5030658;28;20065;-71
2022/05/26 05:56:27;;;;;;;9.63;1.85;;;14.60;99.90;;;;;;5015434;28;20052;-63
2022/05/26 05:58:53;;;;;;;10.38;1.60;;;14.50;99.90;;;;;;5031796;28;20517;-71
2022/05/26 06:01:19;;;;;;;11.25;2.10;;;14.40;99.90;;;;;;5031366;28;20055;-68
2022/05/26 06:03:46;;;;;;;12.82;2.15;;;14.50;99.90;;;;;;5015343;28;20127;-71
2022/05/26 06:06:13;;;;;;;10.32;2.08;;;14.50;99.90;;;;;;4999295;28;20045;-68
2022/05/26 06:08:39;;;;;;;7.65;1.42;;;14.50;99.90;;;;;;5031020;28;20167;-64
2022/05/26 06:11:05;;;;;;;10.77;2.03;;;14.50;99.90;;;;;;5008187;28;20053;-67
2022/05/26 06:13:31;;;;;;;8.95;1.98;;;14.60;99.90;;;;;;5011496;28;20045;-69
2022/05/26 06:15:56;;;;;;;10.60;2.20;;;14.60;99.90;;;;;;5024797;28;20049;-70
2022/05/26 06:18:22;;;;;;;14.70;2.13;;;14.70;99.90;;;;;;5014885;28;20045;-63
2022/05/26 06:20:49;;;;;;;18.50;1.95;;;14.80;99.90;;;;;;5014701;28;20045;-69
2022/05/26 06:23:17;;;;;;;13.25;2.38;;;14.80;99.90;;;;;;4995839;28;20061;-65
2022/05/26 06:25:43;;;;;;;9.45;1.90;;;15.00;99.90;;;;;;5018896;28;20041;-63
2022/05/26 06:30:53;;;;;;;10.48;2.08;;;15.00;99.90;;;;;;5029766;28;20060;-67
2022/05/26 06:38:47;;;;;;;5.85;1.50;;;15.00;99.90;;;;;;5010973;28;20403;-67
2022/05/26 06:44:03;;;;;;;8.05;1.10;;;15.20;99.90;;;;;;5030443;28;20467;-70
2022/05/26 06:46:29;;;;;;;11.90;1.80;;;15.20;99.90;;;;;;5030309;28;20040;-68
2022/05/26 06:48:55;;;;;;;11.90;1.77;;;15.30;99.90;;;;;;5030910;28;20368;-64
2022/05/26 06:51:24;;;;;;;8.18;1.80;;;15.40;99.90;;;;;;5014357;28;20495;-66
2022/05/26 06:53:51;;;;;;;5.47;1.60;;;15.60;99.90;;;;;;5012738;28;20544;-65
2022/05/26 06:56:16;;;;;;;7.97;1.48;;;15.70;99.90;;;;;;5040736;28;20060;-74
2022/05/26 06:58:42;;;;;;;11.90;1.83;;;15.60;99.50;;;;;;5008752;28;20392;-67
2022/05/26 07:01:08;;;;;;;8.60;2.05;;;15.50;99.20;;;;;;5005492;28;20164;-69
2022/05/26 07:03:34;;;;;;;9.60;1.50;;;15.40;99.90;;;;;;4991470;28;20096;-70
2022/05/26 07:06:00;;;;;;;11.45;2.22;;;15.30;99.90;;;;;;5007509;28;20099;-67
2022/05/26 07:08:26;;;;;;;8.27;1.75;;;15.20;99.90;;;;;;5008064;28;20052;-66
2022/05/26 07:10:54;;;;;;;9.35;1.88;;;15.20;99.90;;;;;;4973988;28;20050;-64
2022/05/26 07:13:20;;;;;;;6.55;1.42;;;15.10;99.90;;;;;;5007706;28;20401;-68
2022/05/26 07:15:47;;;;;;;6.72;1.55;;;15.20;99.90;;;;;;4989792;28;20104;-70
2022/05/26 07:18:12;;;;;;;8.45;1.95;;;15.50;99.90;;;;;;5007471;28;20136;-64
2022/05/26 07:20:39;;;;;;;6.45;1.40;;;15.60;99.90;;;;;;5025269;28;20593;-65
2022/05/26 07:23:08;;;;;;;8.57;1.63;;;15.70;99.90;;;;;;5009265;28;20053;-67
2022/05/26 07:25:34;;;;;;;8.20;1.83;;;15.60;99.90;;;;;;5006324;28;20520;-66
2022/05/26 07:28:00;;;;;;;5.10;1.10;;;15.70;99.60;;;;;;5006993;28;20085;-69
2022/05/26 07:30:26;;;;;;;6.18;1.33;;;15.80;97.90;;;;;;4990839;28;20085;-69
2022/05/26 07:32:51;;;;;;;5.38;1.17;;;15.90;97.60;;;;;;4988659;28;20054;-63
2022/05/26 07:35:17;;;;;;;8.38;1.20;;;15.80;99.30;;;;;;5006382;28;20111;-73
2022/05/26 07:43:16;;;;;;;6.47;1.35;;;15.40;99.90;;;;;;5024958;28;20050;-65
2022/05/26 07:45:42;;;;;;;6.95;1.40;;;15.20;99.90;;;;;;5006378;28;20046;-66
2022/05/26 07:48:08;;;;;;;7.88;1.27;;;15.20;99.90;;;;;;4988831;28;20049;-65
2022/05/26 07:50:33;;;;;;;5.28;1.30;;;15.10;99.90;;;;;;5006734;28;20124;-71
2022/05/26 07:52:59;;;;;;;5.53;1.05;;;15.20;99.90;;;;;;5015399;28;20168;-70
2022/05/26 07:55:25;;;;;;;5.40;1.20;;;15.10;99.90;;;;;;5021219;28;20041;-71
2022/05/26 07:57:53;;;;;;;6.57;1.23;;;15.30;99.90;;;;;;5019053;28;20071;-67
2022/05/26 08:00:19;;;;;;;13.32;2.20;;;15.30;99.90;;;;;;5021846;28;20042;-68
2022/05/26 08:02:45;;;;;;;8.90;1.73;;;15.50;99.90;;;;;;5020207;28;20059;-72
2022/05/26 08:05:12;;;;;;;11.23;1.60;;;15.60;99.90;;;;;;5009023;28;20053;-69
2022/05/26 08:07:38;;;;;;;7.07;1.95;;;15.80;99.90;;;;;;5007978;28;20076;-63
2022/05/26 08:10:05;;;;;;;8.98;1.60;;;16.00;99.80;;;;;;5025573;28;20048;-64
2022/05/26 08:12:31;;;;;;;8.90;1.40;;;16.20;99.90;;;;;;5005675;28;20093;-69
2022/05/26 08:14:57;;;;;;;8.82;1.65;;;16.40;99.90;;;;;;5010208;28;20397;-69
2022/05/26 08:17:23;;;;;;;8.43;1.60;;;16.40;98.60;;;;;;4990415;28;20084;-62
2022/05/26 08:19:50;;;;;;;6.32;1.58;;;16.30;95.20;;;;;;4999813;28;20045;-70
2022/05/26 08:22:17;;;;;;;5.68;1.25;;;16.30;97.20;;;;;;5024927;28;20045;-63
2022/05/26 08:24:52;;;;;;;11.15;1.40;;;16.30;97.60;;;;;;5023574;28;20042;-64
2022/05/26 08:27:18;;;;;;;6.00;1.50;;;16.40;95.20;;;;;;5008482;28;20091;-68
2022/05/26 08:29:44;;;;;;;4.25;1.10;;;16.40;94.00;;;;;;5014802;28;20480;-63
2022/05/26 08:32:10;;;;;;;7.68;1.70;;;16.50;91.30;;;;;;5007045;28;20381;-65
2022/05/26 08:34:35;;;;;;;6.90;1.40;;;16.40;91.90;;;;;;5025870;28;20096;-70
2022/05/26 08:37:16;;;;;;;9.35;1.73;;;16.40;95.60;;;;;;5022427;28;20060;-64
2022/05/26 08:39:42;;;;;;;6.60;1.77;;;16.60;92.90;;;;;;4989005;28;20124;-63
2022/05/26 08:42:16;;;;;;;11.20;1.73;;;16.60;91.10;;;;;;5005640;28;20128;-65
2022/05/26 08:44:42;;;;;;;4.68;1.08;;;16.70;90.20;;;;;;5038436;28;20042;-64
2022/05/26 08:47:09;;;;;;;2.47;1.00;;;16.80;85.70;;;;;;5015887;28;20049;-64
2022/05/26 08:49:56;;;;;;;6.00;1.52;;;17.00;84.10;;;;;;5024294;28;20081;-69
2022/05/26 08:52:36;;;;;;;7.38;1.30;;;17.00;81.00;;;;;;5007822;28;20061;-64
2022/05/26 08:55:07;;;;;;;7.88;1.20;;;16.80;88.80;;;;;;5025605;28;20049;-64
2022/05/26 08:57:41;;;;;;;8.40;1.33;;;16.90;87.40;;;;;;5028437;28;20083;-70
2022/05/26 09:00:13;;;;;;;5.80;1.25;;;17.30;87.50;;;;;;5029117;28;20057;-63
2022/05/26 09:02:40;;;;;;;7.70;1.52;;;17.60;81.60;;;;;;5027615;28;20139;-73
2022/05/26 09:05:16;;;;;;;5.85;1.35;;;17.60;70.60;;;;;;5028529;28;20045;-69
2022/05/26 09:13:41;;;;;;;4.38;1.17;;;17.20;70.70;;;;;;5028352;28;20056;-63
2022/05/26 09:16:08;;;;;;;8.20;1.20;;;17.20;73.00;;;;;;4995694;28;20103;-63
2022/05/26 09:18:38;;;;;;;8.27;1.83;;;17.00;75.40;;;;;;5028915;28;20091;-70
2022/05/26 09:21:21;;;;;;;3.08;0.90;;;17.10;66.20;;;;;;5027374;28;20051;-65
2022/05/26 09:23:47;;;;;;;3.95;1.25;;;17.20;69.30;;;;;;5026516;28;20037;-69
2022/05/26 09:26:17;;;;;;;6.63;1.25;;;17.00;60.80;;;;;;5012562;28;20052;-68
2022/05/26 09:28:50;;;;;;;5.25;1.20;;;17.20;76.50;;;;;;5027544;28;20041;-66
2022/05/26 09:31:21;;;;;;;7.60;1.35;;;17.30;68.10;;;;;;5011264;28;20140;-63
2022/05/26 09:34:04;;;;;;;6.15;1.42;;;17.40;72.50;;;;;;5045628;28;20534;-70
2022/05/26 09:36:37;;;;;;;8.43;1.67;;;17.30;64.70;;;;;;5011690;28;20132;-67
2022/05/26 09:39:04;;;;;;;5.47;1.40;;;17.10;61.30;;;;;;5028108;28;20350;-65
2022/05/26 09:41:49;;;;;;;9.73;1.50;;;17.00;74.70;;;;;;5028013;28;20068;-62
2022/05/26 09:44:53;;;;;;;4.55;1.38;;;16.70;65.50;;;;;;5028172;28;20095;-63
2022/05/26 09:47:21;;;;;;;7.93;1.40;;;16.40;73.30;;;;;;4989272;28;20057;-72
2022/05/26 09:49:51;;;;;;;3.53;1.00;;;16.40;77.20;;;;;;5007678;28;20050;-63
2022/05/26 09:52:20;;;;;;;5.82;1.42;;;16.40;76.30;;;;;;5023229;28;20049;-68
2022/05/26 09:54:47;;;;;;;3.15;1.23;;;16.50;77.70;;;;;;5027287;28;20057;-69
2022/05/26 09:57:19;;;;;;;5.82;1.42;;;16.40;70.00;;;;;;5027292;28;20141;-68
2022/05/26 09:59:47;;;;;;;6.78;1.25;;;16.50;76.40;;;;;;5028197;28;20122;-73
2022/05/26 10:02:25;;;;;;;6.15;0.90;;;16.70;76.00;;;;;;5009488;28;20143;-71
2022/05/26 10:04:57;;;;;;;4.55;1.20;;;17.00;70.00;;;;;;5026193;28;20106;-63
2022/05/26 10:07:47;;;;;;;1.90;0.77;;;17.10;77.80;;;;;;5026877;28;20045;-66
2022/05/26 10:10:28;;;;;;;3.63;1.10;;;17.10;69.60;;;;;;5027488;28;20053;-69
2022/05/26 10:13:16;;;;;;;5.30;1.30;;;17.20;65.00;;;;;;5026644;28;20056;-66
2022/05/26 10:15:58;;;;;;;7.43;0.98;;;17.30;72.60;;;;;;4997825;28;20566;-70
2022/05/26 10:18:45;;;;;;;4.03;1.08;;;17.30;68.70;;;;;;5027374;28;20434;-72
2022/05/26 10:21:38;;;;;;;5.53;1.13;;;17.20;74.70;;;;;;5026611;28;20044;-68
2022/05/26 10:24:26;;;;;;;6.10;1.20;;;17.30;74.20;;;;;;5025950;28;20041;-65
2022/05/26 10:27:16;;;;;;;3.85;1.08;;;17.40;66.40;;;;;;5026896;28;20102;-63
2022/05/26 10:29:57;;;;;;;7.28;1.17;;;17.30;67.00;;;;;;5044879;28;20045;-67
2022/05/26 10:32:46;;;;;;;4.80;1.20;;;17.10;71.90;;;;;;5026458;28;20128;-63
2022/05/26 10:35:41;;;;;;;3.60;1.27;;;16.80;67.10;;;;;;5027856;28;20053;-67
2022/05/26 10:38:28;;;;;;;2.53;0.90;;;16.80;69.00;;;;;;5048500;28;20037;-63
2022/05/26 10:41:12;;;;;;;5.75;1.33;;;16.80;71.10;;;;;;5029833;28;20052;-67
2022/05/26 10:44:09;;;;;;;6.57;1.00;;;17.20;69.80;;;;;;5031020;28;20084;-65
2022/05/26 10:46:40;;;;;;;3.28;1.02;;;17.30;63.90;;;;;;5027307;28;20411;-73
2022/05/26 10:49:32;;;;;;;5.30;1.20;;;17.50;68.80;;;;;;5012308;28;20045;-63
2022/05/26 10:52:07;;;;;;;4.28;1.40;;;17.60;57.10;;;;;;5006552;28;20068;-68
2022/05/26 10:55:07;;;;;;;6.28;1.27;;;17.70;68.50;;;;;;5045580;28;20380;-67
2022/05/26 10:58:07;;;;;;;2.75;0.85;;;17.80;61.20;;;;;;5028710;28;20048;-64
2022/05/26 11:00:33;;;;;;;4.57;0.90;;;17.80;60.50;;;;;;5030456;28;20049;-62
2022/05/26 11:03:02;;;;;;;3.38;0.93;;;17.70;51.80;;;;;;5029460;28;20037;-65
2022/05/26 11:05:44;;;;;;;2.55;0.80;;;17.60;59.30;;;;;;5030785;28;20063;-64
2022/05/26 11:08:33;;;;;;;8.38;1.50;;;17.70;51.20;;;;;;5025365;28;20045;-68
2022/05/26 11:11:06;;;;;;;5.05;1.48;;;17.70;47.20;;;;;;5044999;28;20625;-64
2022/05/26 11:13:37;;;;;;;6.18;1.13;;;17.70;53.40;;;;;;5009639;28;20053;-69
2022/05/26 11:19:27;;;;;;;5.05;1.00;;;17.80;45.20;;;;;;5026951;28;20142;-63
2022/05/26 11:21:53;;;;;;;9.18;0.90;;;17.80;50.50;;;;;;5012888;28;20835;-70
2022/05/26 11:24:21;;;;;;;3.63;1.05;;;17.70;52.30;;;;;;5029646;28;20123;-71
2022/05/26 11:26:53;;;;;;;4.60;0.85;;;17.60;51.40;;;;;;5013635;28;20510;-61
2022/05/26 11:29:37;;;;;;;3.25;0.90;;;17.70;55.20;;;;;;5029118;28;20490;-66
2022/05/26 11:38:28;;;;;;;5.93;1.23;;;17.70;64.40;;;;;;5029378;28;20060;-64
2022/05/26 11:41:00;;;;;;;3.45;1.23;;;17.60;61.70;;;;;;5029175;28;20052;-75
2022/05/26 11:43:43;;;;;;;4.18;0.95;;;17.50;61.70;;;;;;5029121;28;20048;-65
2022/05/26 11:46:44;;;;;;;5.38;1.10;;;17.50;63.20;;;;;;5029089;28;20726;-65
2022/05/26 11:49:30;;;;;;;4.60;1.05;;;17.40;62.70;;;;;;5012549;28;20055;-68
2022/05/26 11:51:58;;;;;;;8.38;1.70;;;17.40;62.40;;;;;;5012671;28;20385;-64
2022/05/26 11:54:57;;;;;;;7.32;0.90;;;17.60;63.40;;;;;;5029004;28;20511;-62
2022/05/26 11:57:39;;;;;;;;;;;17.70;64.20;;;;;;4995761;28;20049;-66
2022/05/26 12:00:34;;;;;;;5.88;0.95;;;17.60;61.20;;;;;;5028597;28;19924;-72
2022/05/26 12:03:22;;;;;;;5.75;1.45;;;17.50;54.40;;;;;;5006414;28;20053;-67
2022/05/26 12:05:55;;;;;;;1.83;0.80;;;17.50;56.20;;;;;;5029007;28;20053;-67
2022/05/26 12:08:30;;;;;;;3.75;1.25;;;17.40;61.80;;;;;;5012213;28;20060;-68
2022/05/26 12:11:00;;;;;;;9.52;1.30;;;17.40;61.30;;;;;;5029341;28;20049;-69
2022/05/26 12:13:28;;;;;;;7.47;1.17;;;17.40;57.80;;;;;;5013120;28;20048;-65
2022/05/26 12:16:15;;;;;;;7.50;0.80;;;17.50;57.40;;;;;;5029493;28;20060;-64
2022/05/26 12:18:56;;;;;;;3.63;0.75;;;17.50;60.40;;;;;;5013084;28;20130;-66
2022/05/26 12:21:28;;;;;;;4.93;1.00;;;17.60;59.20;;;;;;5028981;28;20059;-68
2022/05/26 12:23:56;;;;;;;4.15;0.95;;;17.80;53.20;;;;;;5028922;28;20110;-63
2022/05/26 12:26:46;;;;;;;3.67;0.98;;;18.10;59.80;;;;;;5027744;28;20056;-65
2022/05/26 12:30:01;;;;;;;5.32;1.20;;;18.30;59.00;;;;;;5012182;28;20084;-69
2022/05/26 12:32:31;;;;;;;5.85;1.25;;;18.40;51.00;;;;;;5028610;28;20634;-62
2022/05/26 12:35:06;;;;;;;2.38;1.20;;;18.30;52.20;;;;;;5009322;28;20057;-72
2022/05/26 12:37:42;;;;;;;4.10;1.05;;;18.20;54.90;;;;;;5009284;28;20049;-67
2022/05/26 12:40:17;;;;;;;4.13;1.13;;;18.10;53.60;;;;;;4992651;28;20049;-62
2022/05/26 12:43:22;;;;;;;3.38;0.95;;;18.00;59.10;;;;;;5009212;28;20041;-62
2022/05/26 12:46:04;;;;;;;5.65;0.98;;;17.80;55.20;;;;;;5009282;28;20046;-62
2022/05/26 12:49:31;;;;;;;10.10;1.30;;;17.70;59.60;;;;;;5012574;28;20488;-61
2022/05/26 12:52:17;;;;;;;7.45;1.10;;;17.70;63.90;;;;;;4949106;28;20057;-70
2022/05/26 12:54:51;;;;;;;3.15;0.90;;;17.90;64.10;;;;;;5024476;28;20124;-63
2022/05/26 12:57:24;;;;;;;7.82;1.40;;;18.10;67.60;;;;;;5025082;28;20059;-69
2022/05/26 12:59:50;;;;;;;7.07;1.30;;;18.10;60.50;;;;;;4992071;28;20049;-67
2022/05/26 13:02:24;;;;;;;5.18;1.35;;;18.20;56.30;;;;;;5008593;28;20381;-68
2022/05/26 13:04:51;;;;;;;8.02;1.60;;;18.20;58.00;;;;;;4994586;28;20064;-60
2022/05/26 13:07:18;;;;;;;3.67;1.10;;;18.40;59.40;;;;;;5008106;28;20055;-62
2022/05/26 13:09:51;;;;;;;6.57;1.25;;;18.40;60.30;;;;;;4992705;28;20079;-66
2022/05/26 13:12:22;;;;;;;10.63;1.17;;;18.20;58.20;;;;;;5008325;28;20045;-64
2022/05/26 13:14:50;;;;;;;6.03;1.33;;;18.10;55.60;;;;;;5008700;28;20045;-62
2022/05/26 13:17:25;;;;;;;6.43;1.48;;;18.20;62.40;;;;;;5007638;28;20053;-60
2022/05/26 13:19:52;;;;;;;3.97;1.58;;;18.20;56.10;;;;;;5008872;28;20052;-62
2022/05/26 13:22:21;;;;;;;3.40;1.08;;;18.20;53.10;;;;;;4991773;28;20049;-65
2022/05/26 13:24:51;;;;;;;3.35;1.15;;;18.10;57.70;;;;;;5008506;28;20456;-60
2022/05/26 13:27:17;;;;;;;6.32;1.58;;;18.10;55.40;;;;;;5007609;28;20061;-65
2022/05/26 13:29:48;;;;;;;9.57;1.25;;;18.20;56.60;;;;;;5007790;28;20049;-66
2022/05/26 13:35:18;;;;;;;6.25;1.40;;;18.10;57.00;;;;;;5024031;28;20694;-63
2022/05/26 13:37:45;;;;;;;3.33;1.00;;;18.00;61.90;;;;;;5008413;28;20057;-64
2022/05/26 13:40:16;;;;;;;5.57;1.50;;;17.90;58.80;;;;;;4991570;28;20084;-65
2022/05/26 13:42:44;;;;;;;10.15;1.52;;;17.70;60.90;;;;;;5007986;28;20060;-70
2022/05/26 13:45:34;;;;;;;9.15;1.42;;;17.60;62.10;;;;;;5008290;28;20057;-64
2022/05/26 13:48:30;;;;;;;7.57;1.50;;;17.60;62.00;;;;;;5007842;28;20507;-61
2022/05/26 13:51:19;;;;;;;5.15;1.30;;;17.50;64.00;;;;;;5008634;28;20057;-63
2022/05/26 13:54:09;;;;;;;7.65;1.70;;;17.30;63.00;;;;;;4992159;28;20115;-61
2022/05/26 13:56:35;;;;;;;6.85;1.17;;;17.20;63.30;;;;;;5007816;28;20447;-61
2022/05/26 13:59:09;;;;;;;3.85;1.10;;;17.00;64.60;;;;;;5007831;28;20117;-68